createdAt,value
2023-01-17T07:00:47.232Z,95.16
2023-01-17T07:09:08.810Z,93.33
2023-01-17T07:11:35.827Z,94.10
2023-01-17T07:14:02.825Z,94.45
2023-01-17T07:16:29.980Z,93.69
2023-01-17T07:18:58.225Z,93.89
2023-01-17T07:21:25.179Z,94.63
2023-01-17T07:23:52.072Z,93.22
2023-01-17T07:26:19.099Z,94.24
2023-01-17T07:28:45.879Z,93.42
2023-01-17T07:31:13.136Z,93.44
2023-01-17T07:33:40.128Z,93.84
2023-01-17T07:36:08.058Z,93.45
2023-01-17T07:38:35.621Z,92.53
2023-01-17T07:41:02.850Z,92.11
2023-01-17T07:43:30.189Z,91.31
2023-01-17T07:45:57.143Z,91.59
2023-01-17T07:48:24.978Z,90.84
2023-01-17T07:53:30.428Z,91.50
2023-01-17T08:12:02.107Z,85.95
2023-01-17T08:31:17.992Z,79.48
2023-01-17T08:33:45.023Z,80.33
2023-01-17T08:38:43.207Z,81.18
2023-01-17T08:41:13.652Z,79.28
2023-01-17T08:43:41.034Z,80.43
2023-01-17T08:46:08.109Z,79.32
2023-01-17T08:48:35.404Z,79.77
2023-01-17T08:51:02.956Z,79.88
2023-01-17T08:53:30.527Z,79.63
2023-01-17T08:55:59.697Z,79.65
2023-01-17T08:58:31.499Z,79.30
2023-01-17T15:04:55.802Z,65.15
2023-01-17T19:37:47.310Z,66.04
2023-01-17T19:40:16.358Z,66.63
2023-01-17T19:42:43.937Z,66.91
2023-01-17T19:47:54.876Z,67.22
2023-01-17T19:55:47.754Z,66.38
2023-01-17T20:01:01.544Z,66.33
2023-01-17T20:06:08.100Z,65.51
2023-01-17T20:08:36.285Z,65.70
2023-01-17T20:11:08.830Z,65.72
2023-01-17T20:13:35.779Z,65.75
2023-01-17T20:16:08.618Z,64.95
2023-01-17T20:18:36.508Z,65.00
2023-01-17T20:21:11.126Z,64.47
2023-01-17T20:23:43.160Z,64.88
2023-01-17T20:26:11.993Z,63.81
2023-01-17T20:28:40.891Z,64.76
2023-01-17T20:31:19.815Z,64.63
2023-01-17T20:33:47.840Z,64.61
2023-01-17T20:36:16.346Z,64.00
2023-01-17T20:38:44.524Z,63.64
2023-01-17T20:41:24.798Z,63.92
2023-01-17T20:43:54.222Z,64.48
2023-01-17T20:46:22.868Z,64.14
2023-01-17T20:48:51.977Z,63.92
2023-01-17T20:51:19.790Z,63.48
2023-01-17T20:53:50.956Z,63.27
2023-01-17T20:56:18.996Z,63.79
2023-01-17T20:58:45.974Z,63.84
2023-01-17T21:01:19.567Z,63.11
2023-01-17T21:03:49.439Z,63.20
2023-01-17T21:06:16.302Z,62.93
2023-01-17T21:08:44.681Z,63.07
2023-01-17T21:11:15.396Z,63.01
2023-01-17T21:13:43.028Z,63.24
2023-01-17T21:16:12.829Z,63.38
2023-01-17T21:18:40.530Z,63.22
2023-01-17T21:21:13.066Z,63.76
2023-01-17T21:26:16.783Z,63.88
2023-01-17T21:28:45.346Z,63.73
2023-01-17T21:31:25.942Z,63.05
2023-01-17T21:33:56.889Z,63.04
2023-01-17T21:36:27.436Z,62.06
2023-01-17T21:38:57.225Z,62.10
2023-01-17T21:41:26.953Z,62.45
2023-01-17T21:43:57.975Z,62.36
2023-01-17T21:46:25.940Z,62.02
2023-01-17T21:48:53.056Z,61.81
2023-01-17T21:51:21.913Z,62.17
2023-01-17T21:53:48.960Z,61.79
2023-01-17T21:56:34.151Z,62.09
2023-01-17T21:59:01.851Z,61.61
2023-01-17T22:01:32.345Z,62.05
2023-01-17T22:04:01.739Z,61.41
2023-01-17T22:06:31.199Z,61.56
2023-01-17T22:08:58.850Z,61.67
2023-01-17T22:11:27.245Z,61.70
2023-01-17T22:13:54.107Z,61.89
2023-01-17T22:16:24.180Z,62.02
2023-01-17T22:18:52.055Z,61.79
2023-01-17T22:21:24.786Z,61.96
2023-01-17T22:23:56.931Z,62.44
2023-01-17T22:26:42.768Z,62.30
2023-01-17T22:29:11.452Z,63.52
2023-01-17T22:31:38.263Z,63.32
2023-01-17T22:34:05.340Z,63.25
2023-01-17T22:36:33.580Z,63.56
2023-01-17T22:39:01.187Z,64.30
2023-01-17T22:41:34.773Z,64.22
2023-01-17T22:44:02.553Z,64.60
2023-01-17T22:46:32.411Z,64.46
2023-01-17T22:49:00.687Z,64.93
2023-01-17T22:51:29.047Z,65.25
2023-01-17T22:53:58.028Z,65.22
2023-01-17T22:56:43.515Z,65.50
2023-01-17T22:59:11.853Z,65.79
2023-01-17T23:01:57.319Z,65.82
2023-01-17T23:04:24.098Z,65.75
2023-01-17T23:06:50.919Z,66.39
2023-01-17T23:09:18.021Z,66.21
2023-01-17T23:11:54.129Z,66.42
2023-01-17T23:14:22.350Z,66.94
2023-01-17T23:17:15.309Z,67.35
2023-01-17T23:19:51.148Z,67.15
2023-01-17T23:22:27.184Z,67.10
2023-01-17T23:24:56.622Z,67.47
2023-01-17T23:35:35.492Z,67.90
2023-01-17T23:38:21.753Z,66.75
2023-01-17T23:41:07.840Z,66.18
2023-01-17T23:43:36.554Z,65.70
2023-01-17T23:46:04.979Z,66.31
